sensor_id;sensor_type;location;lat;lon;timestamp;temperature;humidity
9323;DHT22;4700;48.822;9.270;2023-06-05T00:02:22;15.60;1.00
9323;DHT22;4700;48.822;9.270;2023-06-05T00:05:07;15.50;1.00
9323;DHT22;4700;48.822;9.270;2023-06-05T00:07:55;15.40;1.00
9323;DHT22;4700;48.822;9.270;2023-06-05T00:10:41;15.40;1.00
9323;DHT22;4700;48.822;9.270;2023-06-05T00:13:27;15.20;1.00
9323;DHT22;4700;48.822;9.270;2023-06-05T00:16:12;15.30;1.00
9323;DHT22;4700;48.822;9.270;2023-06-05T00:18:58;15.20;1.00
9323;DHT22;4700;48.822;9.270;2023-06-05T00:21:45;15.20;1.00
9323;DHT22;4700;48.822;9.270;2023-06-05T00:27:18;15.10;1.00
9323;DHT22;4700;48.822;9.270;2023-06-05T00:30:04;15.00;1.00
9323;DHT22;4700;48.822;9.270;2023-06-05T00:32:50;14.80;1.00
9323;DHT22;4700;48.822;9.270;2023-06-05T00:38:23;14.70;1.00
9323;DHT22;4700;48.822;9.270;2023-06-05T00:43:56;14.70;1.00
9323;DHT22;4700;48.822;9.270;2023-06-05T00:46:42;14.70;1.00
9323;DHT22;4700;48.822;9.270;2023-06-05T00:49:28;14.30;1.00
9323;DHT22;4700;48.822;9.270;2023-06-05T00:52:14;14.60;1.00
9323;DHT22;4700;48.822;9.270;2023-06-05T00:55:01;14.50;1.00
9323;DHT22;4700;48.822;9.270;2023-06-05T00:57:48;14.50;1.00
9323;DHT22;4700;48.822;9.270;2023-06-05T01:00:34;14.40;1.00
9323;DHT22;4700;48.822;9.270;2023-06-05T01:03:21;14.40;1.00
9323;DHT22;4700;48.822;9.270;2023-06-05T01:06:06;14.30;1.00
9323;DHT22;4700;48.822;9.270;2023-06-05T01:08:53;14.20;1.00
9323;DHT22;4700;48.822;9.270;2023-06-05T01:11:45;14.20;1.00
9323;DHT22;4700;48.822;9.270;2023-06-05T01:14:38;14.20;1.00
9323;DHT22;4700;48.822;9.270;2023-06-05T01:17:25;14.10;1.00
9323;DHT22;4700;48.822;9.270;2023-06-05T01:20:12;14.10;1.00
9323;DHT22;4700;48.822;9.270;2023-06-05T01:23:00;14.20;1.00
9323;DHT22;4700;48.822;9.270;2023-06-05T01:25:45;14.20;1.00
9323;DHT22;4700;48.822;9.270;2023-06-05T01:28:32;14.10;1.00
9323;DHT22;4700;48.822;9.270;2023-06-05T01:31:21;14.10;1.00
9323;DHT22;4700;48.822;9.270;2023-06-05T01:34:08;14.10;1.00
9323;DHT22;4700;48.822;9.270;2023-06-05T01:36:57;14.00;1.00
9323;DHT22;4700;48.822;9.270;2023-06-05T01:39:45;14.00;1.00
9323;DHT22;4700;48.822;9.270;2023-06-05T01:42:32;14.00;1.00
9323;DHT22;4700;48.822;9.270;2023-06-05T01:45:18;13.90;1.00
9323;DHT22;4700;48.822;9.270;2023-06-05T01:48:04;13.80;1.00
9323;DHT22;4700;48.822;9.270;2023-06-05T01:50:55;13.70;1.00
9323;DHT22;4700;48.822;9.270;2023-06-05T01:53:40;13.60;1.00
9323;DHT22;4700;48.822;9.270;2023-06-05T01:56:27;13.60;1.00
9323;DHT22;4700;48.822;9.270;2023-06-05T01:59:14;13.50;1.00
9323;DHT22;4700;48.822;9.270;2023-06-05T02:02:00;13.50;1.00
9323;DHT22;4700;48.822;9.270;2023-06-05T02:04:47;13.50;1.00
9323;DHT22;4700;48.822;9.270;2023-06-05T02:07:37;13.50;1.00
9323;DHT22;4700;48.822;9.270;2023-06-05T02:10:24;13.70;1.00
9323;DHT22;4700;48.822;9.270;2023-06-05T02:13:11;13.40;1.00
9323;DHT22;4700;48.822;9.270;2023-06-05T02:15:57;13.30;1.00
9323;DHT22;4700;48.822;9.270;2023-06-05T02:18:44;13.20;1.00
9323;DHT22;4700;48.822;9.270;2023-06-05T02:21:33;13.20;1.00
9323;DHT22;4700;48.822;9.270;2023-06-05T02:24:19;13.20;1.00
9323;DHT22;4700;48.822;9.270;2023-06-05T02:27:05;13.10;1.00
9323;DHT22;4700;48.822;9.270;2023-06-05T02:29:53;13.10;1.00
9323;DHT22;4700;48.822;9.270;2023-06-05T02:32:39;13.20;1.00
9323;DHT22;4700;48.822;9.270;2023-06-05T02:35:27;13.10;1.00
9323;DHT22;4700;48.822;9.270;2023-06-05T02:38:13;13.10;1.00
9323;DHT22;4700;48.822;9.270;2023-06-05T02:40:59;13.10;1.00
9323;DHT22;4700;48.822;9.270;2023-06-05T02:43:45;13.10;1.00
9323;DHT22;4700;48.822;9.270;2023-06-05T02:46:31;13.00;1.00
9323;DHT22;4700;48.822;9.270;2023-06-05T02:49:17;13.00;1.00
9323;DHT22;4700;48.822;9.270;2023-06-05T02:52:03;12.90;1.00
9323;DHT22;4700;48.822;9.270;2023-06-05T02:54:49;12.90;1.00
9323;DHT22;4700;48.822;9.270;2023-06-05T02:57:35;12.80;1.00
9323;DHT22;4700;48.822;9.270;2023-06-05T03:00:25;12.70;1.00
9323;DHT22;4700;48.822;9.270;2023-06-05T03:03:13;12.70;1.00
9323;DHT22;4700;48.822;9.270;2023-06-05T03:06:01;12.70;1.00
9323;DHT22;4700;48.822;9.270;2023-06-05T03:08:48;12.70;1.00
9323;DHT22;4700;48.822;9.270;2023-06-05T03:11:40;12.60;1.00
9323;DHT22;4700;48.822;9.270;2023-06-05T03:14:25;12.60;1.00
9323;DHT22;4700;48.822;9.270;2023-06-05T03:17:11;12.60;1.00
9323;DHT22;4700;48.822;9.270;2023-06-05T03:19:59;12.60;1.00
9323;DHT22;4700;48.822;9.270;2023-06-05T03:22:45;12.60;1.00
9323;DHT22;4700;48.822;9.270;2023-06-05T03:25:30;12.50;1.00
9323;DHT22;4700;48.822;9.270;2023-06-05T03:28:16;12.50;1.00
9323;DHT22;4700;48.822;9.270;2023-06-05T03:31:02;12.50;1.00
9323;DHT22;4700;48.822;9.270;2023-06-05T03:33:47;12.50;1.00
9323;DHT22;4700;48.822;9.270;2023-06-05T03:36:35;12.50;1.00
9323;DHT22;4700;48.822;9.270;2023-06-05T03:39:22;12.50;1.00
9323;DHT22;4700;48.822;9.270;2023-06-05T03:42:07;12.50;1.00
9323;DHT22;4700;48.822;9.270;2023-06-05T03:44:55;12.50;1.00
9323;DHT22;4700;48.822;9.270;2023-06-05T03:47:41;12.60;1.00
9323;DHT22;4700;48.822;9.270;2023-06-05T03:50:28;12.70;1.00
9323;DHT22;4700;48.822;9.270;2023-06-05T03:53:16;12.70;1.00
9323;DHT22;4700;48.822;9.270;2023-06-05T03:58:49;12.90;1.00
9323;DHT22;4700;48.822;9.270;2023-06-05T04:01:35;13.00;1.00
9323;DHT22;4700;48.822;9.270;2023-06-05T04:04:21;12.90;1.00
9323;DHT22;4700;48.822;9.270;2023-06-05T04:07:07;12.90;1.00
9323;DHT22;4700;48.822;9.270;2023-06-05T04:09:54;12.70;1.00
9323;DHT22;4700;48.822;9.270;2023-06-05T04:12:40;13.00;1.00
9323;DHT22;4700;48.822;9.270;2023-06-05T04:15:27;13.10;1.00
9323;DHT22;4700;48.822;9.270;2023-06-05T04:18:12;13.20;1.00
9323;DHT22;4700;48.822;9.270;2023-06-05T04:20:58;13.30;1.00
9323;DHT22;4700;48.822;9.270;2023-06-05T04:26:31;13.50;1.00
9323;DHT22;4700;48.822;9.270;2023-06-05T04:29:17;13.60;1.00
9323;DHT22;4700;48.822;9.270;2023-06-05T04:32:03;13.70;1.00
9323;DHT22;4700;48.822;9.270;2023-06-05T04:34:49;13.80;1.00
9323;DHT22;4700;48.822;9.270;2023-06-05T04:37:37;13.90;1.00
9323;DHT22;4700;48.822;9.270;2023-06-05T04:40:23;13.90;1.00
9323;DHT22;4700;48.822;9.270;2023-06-05T04:43:10;14.00;1.00
9323;DHT22;4700;48.822;9.270;2023-06-05T04:45:59;14.00;1.00
9323;DHT22;4700;48.822;9.270;2023-06-05T04:48:45;14.20;1.00
9323;DHT22;4700;48.822;9.270;2023-06-05T04:51:31;14.20;1.00
9323;DHT22;4700;48.822;9.270;2023-06-05T04:54:17;14.30;1.00
9323;DHT22;4700;48.822;9.270;2023-06-05T04:57:03;14.40;1.00
9323;DHT22;4700;48.822;9.270;2023-06-05T04:59:51;14.50;1.00
9323;DHT22;4700;48.822;9.270;2023-06-05T05:02:37;14.60;1.00
9323;DHT22;4700;48.822;9.270;2023-06-05T05:05:23;14.70;1.00
9323;DHT22;4700;48.822;9.270;2023-06-05T05:08:09;14.70;1.00
9323;DHT22;4700;48.822;9.270;2023-06-05T05:10:54;14.90;1.00
9323;DHT22;4700;48.822;9.270;2023-06-05T05:13:40;15.00;1.00
9323;DHT22;4700;48.822;9.270;2023-06-05T05:16:27;15.10;1.00
9323;DHT22;4700;48.822;9.270;2023-06-05T05:19:14;15.20;1.00
9323;DHT22;4700;48.822;9.270;2023-06-05T05:21:59;15.30;1.00
9323;DHT22;4700;48.822;9.270;2023-06-05T05:24:45;15.40;1.00
9323;DHT22;4700;48.822;9.270;2023-06-05T05:27:30;15.50;1.00
9323;DHT22;4700;48.822;9.270;2023-06-05T05:30:18;15.60;1.00
9323;DHT22;4700;48.822;9.270;2023-06-05T05:33:05;15.70;1.00
9323;DHT22;4700;48.822;9.270;2023-06-05T05:35:50;15.80;1.00
9323;DHT22;4700;48.822;9.270;2023-06-05T05:38:36;16.00;1.00
9323;DHT22;4700;48.822;9.270;2023-06-05T05:41:24;16.00;1.00
9323;DHT22;4700;48.822;9.270;2023-06-05T05:44:11;16.20;1.00
9323;DHT22;4700;48.822;9.270;2023-06-05T05:46:56;16.20;1.00
9323;DHT22;4700;48.822;9.270;2023-06-05T05:49:43;16.30;1.00
9323;DHT22;4700;48.822;9.270;2023-06-05T05:52:29;16.50;1.00
9323;DHT22;4700;48.822;9.270;2023-06-05T05:55:15;16.60;1.00
9323;DHT22;4700;48.822;9.270;2023-06-05T05:58:00;16.80;1.00
9323;DHT22;4700;48.822;9.270;2023-06-05T06:00:46;17.30;1.00
9323;DHT22;4700;48.822;9.270;2023-06-05T06:06:22;18.70;1.00
9323;DHT22;4700;48.822;9.270;2023-06-05T06:09:09;23.90;1.00
9323;DHT22;4700;48.822;9.270;2023-06-05T06:11:58;26.30;1.00
9323;DHT22;4700;48.822;9.270;2023-06-05T06:14:47;28.60;1.00
9323;DHT22;4700;48.822;9.270;2023-06-05T06:17:34;29.40;1.00
9323;DHT22;4700;48.822;9.270;2023-06-05T06:20:20;29.20;1.00
9323;DHT22;4700;48.822;9.270;2023-06-05T06:23:07;31.60;1.00
9323;DHT22;4700;48.822;9.270;2023-06-05T06:25:53;33.00;1.00
9323;DHT22;4700;48.822;9.270;2023-06-05T06:28:39;33.60;99.90
9323;DHT22;4700;48.822;9.270;2023-06-05T06:31:25;33.10;99.90
9323;DHT22;4700;48.822;9.270;2023-06-05T06:34:10;34.50;99.90
9323;DHT22;4700;48.822;9.270;2023-06-05T06:36:56;35.10;99.90
9323;DHT22;4700;48.822;9.270;2023-06-05T06:39:43;35.40;99.90
9323;DHT22;4700;48.822;9.270;2023-06-05T06:42:29;35.30;99.90
9323;DHT22;4700;48.822;9.270;2023-06-05T06:45:15;35.70;99.90
9323;DHT22;4700;48.822;9.270;2023-06-05T06:48:00;35.10;99.90
9323;DHT22;4700;48.822;9.270;2023-06-05T06:50:49;35.00;99.90
9323;DHT22;4700;48.822;9.270;2023-06-05T06:53:36;34.70;99.90
9323;DHT22;4700;48.822;9.270;2023-06-05T06:56:23;35.70;99.90
9323;DHT22;4700;48.822;9.270;2023-06-05T06:59:13;36.50;99.90
9323;DHT22;4700;48.822;9.270;2023-06-05T07:02:10;37.00;99.90
9323;DHT22;4700;48.822;9.270;2023-06-05T07:04:56;36.20;99.90
9323;DHT22;4700;48.822;9.270;2023-06-05T07:07:42;35.20;99.90
9323;DHT22;4700;48.822;9.270;2023-06-05T07:10:31;35.40;99.90
9323;DHT22;4700;48.822;9.270;2023-06-05T07:13:18;35.80;99.90
9323;DHT22;4700;48.822;9.270;2023-06-05T07:16:07;35.90;99.90
9323;DHT22;4700;48.822;9.270;2023-06-05T07:18:52;36.00;99.90
9323;DHT22;4700;48.822;9.270;2023-06-05T07:21:39;37.00;99.90
9323;DHT22;4700;48.822;9.270;2023-06-05T07:24:27;37.70;99.90
9323;DHT22;4700;48.822;9.270;2023-06-05T07:27:16;38.30;99.90
9323;DHT22;4700;48.822;9.270;2023-06-05T07:30:04;37.20;99.90
9323;DHT22;4700;48.822;9.270;2023-06-05T07:32:51;35.60;99.90
9323;DHT22;4700;48.822;9.270;2023-06-05T07:35:36;36.50;99.90
9323;DHT22;4700;48.822;9.270;2023-06-05T07:38:22;37.60;99.90
9323;DHT22;4700;48.822;9.270;2023-06-05T07:41:10;37.80;99.90
9323;DHT22;4700;48.822;9.270;2023-06-05T07:43:59;38.40;99.90
9323;DHT22;4700;48.822;9.270;2023-06-05T07:46:47;38.60;99.90
9323;DHT22;4700;48.822;9.270;2023-06-05T07:49:33;37.70;99.90
9323;DHT22;4700;48.822;9.270;2023-06-05T07:52:19;37.50;99.90
9323;DHT22;4700;48.822;9.270;2023-06-05T07:55:05;38.80;99.90
9323;DHT22;4700;48.822;9.270;2023-06-05T07:57:51;38.30;99.90
9323;DHT22;4700;48.822;9.270;2023-06-05T08:00:37;38.90;99.90
9323;DHT22;4700;48.822;9.270;2023-06-05T08:03:29;39.00;99.90
9323;DHT22;4700;48.822;9.270;2023-06-05T08:06:15;37.20;99.90
9323;DHT22;4700;48.822;9.270;2023-06-05T08:09:01;36.20;99.90
9323;DHT22;4700;48.822;9.270;2023-06-05T08:11:47;35.20;99.90
9323;DHT22;4700;48.822;9.270;2023-06-05T08:14:34;36.00;99.90
9323;DHT22;4700;48.822;9.270;2023-06-05T08:17:21;36.70;99.90
9323;DHT22;4700;48.822;9.270;2023-06-05T08:20:10;37.40;99.90
9323;DHT22;4700;48.822;9.270;2023-06-05T08:22:56;38.40;99.90
9323;DHT22;4700;48.822;9.270;2023-06-05T08:25:42;39.60;99.90
9323;DHT22;4700;48.822;9.270;2023-06-05T08:31:17;39.30;99.90
9323;DHT22;4700;48.822;9.270;2023-06-05T08:34:03;38.90;99.90
9323;DHT22;4700;48.822;9.270;2023-06-05T08:36:51;39.90;99.90
9323;DHT22;4700;48.822;9.270;2023-06-05T08:39:37;39.50;99.90
9323;DHT22;4700;48.822;9.270;2023-06-05T08:42:25;39.90;99.90
9323;DHT22;4700;48.822;9.270;2023-06-05T08:45:13;40.10;99.90
9323;DHT22;4700;48.822;9.270;2023-06-05T08:48:01;41.20;99.90
9323;DHT22;4700;48.822;9.270;2023-06-05T08:50:48;40.60;99.90
9323;DHT22;4700;48.822;9.270;2023-06-05T08:53:39;38.10;99.90
9323;DHT22;4700;48.822;9.270;2023-06-05T08:56:28;38.40;99.90
9323;DHT22;4700;48.822;9.270;2023-06-05T08:59:17;39.30;99.90
9323;DHT22;4700;48.822;9.270;2023-06-05T09:02:05;38.80;99.90
9323;DHT22;4700;48.822;9.270;2023-06-05T09:04:52;39.50;99.90
9323;DHT22;4700;48.822;9.270;2023-06-05T09:07:38;40.00;99.90
9323;DHT22;4700;48.822;9.270;2023-06-05T09:10:27;42.30;99.90
9323;DHT22;4700;48.822;9.270;2023-06-05T09:13:14;41.40;99.90
9323;DHT22;4700;48.822;9.270;2023-06-05T09:16:01;41.60;99.90
9323;DHT22;4700;48.822;9.270;2023-06-05T09:18:54;42.10;99.90
9323;DHT22;4700;48.822;9.270;2023-06-05T09:21:40;40.30;99.90
9323;DHT22;4700;48.822;9.270;2023-06-05T09:24:36;38.60;99.90
9323;DHT22;4700;48.822;9.270;2023-06-05T09:27:24;39.90;99.90
9323;DHT22;4700;48.822;9.270;2023-06-05T09:30:10;39.90;99.90
9323;DHT22;4700;48.822;9.270;2023-06-05T09:33:08;40.00;99.90
9323;DHT22;4700;48.822;9.270;2023-06-05T09:36:05;40.50;99.90
9323;DHT22;4700;48.822;9.270;2023-06-05T09:38:52;36.60;99.90
9323;DHT22;4700;48.822;9.270;2023-06-05T09:41:42;35.30;99.90
9323;DHT22;4700;48.822;9.270;2023-06-05T09:44:30;35.00;99.90
9323;DHT22;4700;48.822;9.270;2023-06-05T09:47:21;33.90;99.90
9323;DHT22;4700;48.822;9.270;2023-06-05T09:50:20;35.00;99.90
9323;DHT22;4700;48.822;9.270;2023-06-05T09:53:07;33.90;99.90
9323;DHT22;4700;48.822;9.270;2023-06-05T09:55:54;35.50;99.90
9323;DHT22;4700;48.822;9.270;2023-06-05T09:58:43;35.80;99.90
9323;DHT22;4700;48.822;9.270;2023-06-05T10:01:32;34.30;99.90
9323;DHT22;4700;48.822;9.270;2023-06-05T10:04:22;31.40;99.90
9323;DHT22;4700;48.822;9.270;2023-06-05T10:07:08;31.40;99.90
9323;DHT22;4700;48.822;9.270;2023-06-05T10:09:55;30.90;99.90
9323;DHT22;4700;48.822;9.270;2023-06-05T10:12:43;29.20;99.90
9323;DHT22;4700;48.822;9.270;2023-06-05T10:15:31;26.80;99.90
9323;DHT22;4700;48.822;9.270;2023-06-05T10:18:19;26.10;99.90
9323;DHT22;4700;48.822;9.270;2023-06-05T10:21:08;26.00;99.90
9323;DHT22;4700;48.822;9.270;2023-06-05T10:23:57;26.70;99.90
9323;DHT22;4700;48.822;9.270;2023-06-05T10:27:23;27.50;99.90
9323;DHT22;4700;48.822;9.270;2023-06-05T10:33:42;28.40;99.90
9323;DHT22;4700;48.822;9.270;2023-06-05T10:40:06;26.80;99.90
9323;DHT22;4700;48.822;9.270;2023-06-05T10:42:54;26.80;99.90
9323;DHT22;4700;48.822;9.270;2023-06-05T10:45:40;27.50;99.90
9323;DHT22;4700;48.822;9.270;2023-06-05T10:49:07;27.80;99.90
9323;DHT22;4700;48.822;9.270;2023-06-05T10:51:53;27.80;99.90
9323;DHT22;4700;48.822;9.270;2023-06-05T10:54:55;27.60;99.90
9323;DHT22;4700;48.822;9.270;2023-06-05T11:01:18;27.60;99.90
9323;DHT22;4700;48.822;9.270;2023-06-05T11:04:06;27.70;99.90
9323;DHT22;4700;48.822;9.270;2023-06-05T11:07:13;27.60;99.90
9323;DHT22;4700;48.822;9.270;2023-06-05T11:10:09;27.00;99.90
9323;DHT22;4700;48.822;9.270;2023-06-05T11:13:00;27.10;99.90
9323;DHT22;4700;48.822;9.270;2023-06-05T11:15:49;27.30;99.90
9323;DHT22;4700;48.822;9.270;2023-06-05T11:18:38;27.20;99.90
9323;DHT22;4700;48.822;9.270;2023-06-05T11:22:02;26.90;99.90
9323;DHT22;4700;48.822;9.270;2023-06-05T11:28:09;25.90;99.90
9323;DHT22;4700;48.822;9.270;2023-06-05T11:30:55;26.00;99.90
9323;DHT22;4700;48.822;9.270;2023-06-05T11:33:41;26.40;99.90
9323;DHT22;4700;48.822;9.270;2023-06-05T11:36:30;26.30;99.90
9323;DHT22;4700;48.822;9.270;2023-06-05T11:39:19;26.80;99.90
9323;DHT22;4700;48.822;9.270;2023-06-05T11:42:01;26.30;99.90
9323;DHT22;4700;48.822;9.270;2023-06-05T11:44:47;26.10;99.90
9323;DHT22;4700;48.822;9.270;2023-06-05T11:47:32;26.40;99.90
9323;DHT22;4700;48.822;9.270;2023-06-05T11:50:18;26.50;99.90
9323;DHT22;4700;48.822;9.270;2023-06-05T11:53:06;26.50;99.90
9323;DHT22;4700;48.822;9.270;2023-06-05T11:55:54;27.20;99.90
9323;DHT22;4700;48.822;9.270;2023-06-05T11:58:51;27.60;99.90
9323;DHT22;4700;48.822;9.270;2023-06-05T12:01:37;27.60;99.90
9323;DHT22;4700;48.822;9.270;2023-06-05T12:04:24;28.00;99.90
9323;DHT22;4700;48.822;9.270;2023-06-05T12:07:10;28.10;99.90
9323;DHT22;4700;48.822;9.270;2023-06-05T12:09:56;28.20;99.90
9323;DHT22;4700;48.822;9.270;2023-06-05T12:13:02;27.30;99.90
9323;DHT22;4700;48.822;9.270;2023-06-05T12:15:57;27.20;99.90
9323;DHT22;4700;48.822;9.270;2023-06-05T12:18:43;26.80;99.90
9323;DHT22;4700;48.822;9.270;2023-06-05T12:21:29;27.20;99.90
9323;DHT22;4700;48.822;9.270;2023-06-05T12:24:15;27.60;99.90
9323;DHT22;4700;48.822;9.270;2023-06-05T12:27:07;27.90;99.90
9323;DHT22;4700;48.822;9.270;2023-06-05T12:29:55;28.10;99.90
9323;DHT22;4700;48.822;9.270;2023-06-05T12:32:41;28.10;99.90
9323;DHT22;4700;48.822;9.270;2023-06-05T12:35:28;28.30;99.90
9323;DHT22;4700;48.822;9.270;2023-06-05T12:38:14;28.40;99.90
9323;DHT22;4700;48.822;9.270;2023-06-05T12:41:02;27.60;99.90
9323;DHT22;4700;48.822;9.270;2023-06-05T12:43:58;27.30;99.90
9323;DHT22;4700;48.822;9.270;2023-06-05T12:46:47;26.80;99.90
9323;DHT22;4700;48.822;9.270;2023-06-05T12:49:33;27.30;99.90
9323;DHT22;4700;48.822;9.270;2023-06-05T12:52:19;27.70;99.90
9323;DHT22;4700;48.822;9.270;2023-06-05T12:55:10;27.90;99.90
9323;DHT22;4700;48.822;9.270;2023-06-05T12:57:56;28.00;99.90
9323;DHT22;4700;48.822;9.270;2023-06-05T13:00:42;27.90;99.90
9323;DHT22;4700;48.822;9.270;2023-06-05T13:03:33;27.70;99.90
9323;DHT22;4700;48.822;9.270;2023-06-05T13:06:19;28.30;99.90
9323;DHT22;4700;48.822;9.270;2023-06-05T13:09:05;28.30;99.90
9323;DHT22;4700;48.822;9.270;2023-06-05T13:11:53;28.60;99.90
9323;DHT22;4700;48.822;9.270;2023-06-05T13:14:38;28.80;99.90
9323;DHT22;4700;48.822;9.270;2023-06-05T13:17:24;28.70;99.90
9323;DHT22;4700;48.822;9.270;2023-06-05T13:20:11;28.70;99.90
9323;DHT22;4700;48.822;9.270;2023-06-05T13:22:57;28.30;99.90
9323;DHT22;4700;48.822;9.270;2023-06-05T13:25:45;28.30;99.90
9323;DHT22;4700;48.822;9.270;2023-06-05T13:28:31;28.50;99.90
9323;DHT22;4700;48.822;9.270;2023-06-05T13:31:18;28.60;99.90
9323;DHT22;4700;48.822;9.270;2023-06-05T13:34:04;28.20;99.90
9323;DHT22;4700;48.822;9.270;2023-06-05T13:36:52;26.90;99.90
9323;DHT22;4700;48.822;9.270;2023-06-05T13:39:38;26.80;99.90
9323;DHT22;4700;48.822;9.270;2023-06-05T13:42:25;26.90;99.90
9323;DHT22;4700;48.822;9.270;2023-06-05T13:45:14;27.20;99.90
9323;DHT22;4700;48.822;9.270;2023-06-05T13:48:00;27.40;99.90
9323;DHT22;4700;48.822;9.270;2023-06-05T13:50:46;27.60;99.90
9323;DHT22;4700;48.822;9.270;2023-06-05T13:53:34;27.70;99.90
9323;DHT22;4700;48.822;9.270;2023-06-05T13:56:22;27.90;99.90
9323;DHT22;4700;48.822;9.270;2023-06-05T13:59:12;28.30;99.90
9323;DHT22;4700;48.822;9.270;2023-06-05T14:01:59;27.90;99.90
9323;DHT22;4700;48.822;9.270;2023-06-05T14:04:44;27.90;99.90
9323;DHT22;4700;48.822;9.270;2023-06-05T14:07:30;27.00;99.90
9323;DHT22;4700;48.822;9.270;2023-06-05T14:10:19;26.20;99.90
9323;DHT22;4700;48.822;9.270;2023-06-05T14:13:05;25.60;99.90
9323;DHT22;4700;48.822;9.270;2023-06-05T14:15:51;25.80;99.90
9323;DHT22;4700;48.822;9.270;2023-06-05T14:18:37;26.10;99.90
9323;DHT22;4700;48.822;9.270;2023-06-05T14:21:23;26.70;99.90
9323;DHT22;4700;48.822;9.270;2023-06-05T14:24:09;27.20;99.90
9323;DHT22;4700;48.822;9.270;2023-06-05T14:27:03;27.60;99.90
9323;DHT22;4700;48.822;9.270;2023-06-05T14:29:49;27.60;99.90
9323;DHT22;4700;48.822;9.270;2023-06-05T14:32:35;27.80;99.90
9323;DHT22;4700;48.822;9.270;2023-06-05T14:35:23;27.90;99.90
9323;DHT22;4700;48.822;9.270;2023-06-05T14:38:09;27.50;99.90
9323;DHT22;4700;48.822;9.270;2023-06-05T14:40:56;26.50;99.90
9323;DHT22;4700;48.822;9.270;2023-06-05T14:43:44;26.50;99.90
9323;DHT22;4700;48.822;9.270;2023-06-05T14:46:29;26.80;99.90
9323;DHT22;4700;48.822;9.270;2023-06-05T14:49:15;27.00;99.90
9323;DHT22;4700;48.822;9.270;2023-06-05T14:52:02;27.20;99.90
9323;DHT22;4700;48.822;9.270;2023-06-05T14:54:49;27.40;99.90
9323;DHT22;4700;48.822;9.270;2023-06-05T14:57:35;27.50;99.90
9323;DHT22;4700;48.822;9.270;2023-06-05T15:00:24;27.80;99.90
9323;DHT22;4700;48.822;9.270;2023-06-05T15:03:11;27.80;99.90
9323;DHT22;4700;48.822;9.270;2023-06-05T15:05:57;27.90;99.90
9323;DHT22;4700;48.822;9.270;2023-06-05T15:08:43;28.00;99.90
9323;DHT22;4700;48.822;9.270;2023-06-05T15:11:29;27.90;99.90
9323;DHT22;4700;48.822;9.270;2023-06-05T15:14:14;27.90;99.90
9323;DHT22;4700;48.822;9.270;2023-06-05T15:17:01;27.70;99.90
9323;DHT22;4700;48.822;9.270;2023-06-05T15:19:47;27.60;99.90
9323;DHT22;4700;48.822;9.270;2023-06-05T15:22:33;27.20;99.90
9323;DHT22;4700;48.822;9.270;2023-06-05T15:25:19;27.40;99.90
9323;DHT22;4700;48.822;9.270;2023-06-05T15:28:04;27.60;99.90
9323;DHT22;4700;48.822;9.270;2023-06-05T15:30:50;27.70;99.90
9323;DHT22;4700;48.822;9.270;2023-06-05T15:33:37;27.80;99.90
9323;DHT22;4700;48.822;9.270;2023-06-05T15:36:23;27.80;99.90
9323;DHT22;4700;48.822;9.270;2023-06-05T15:39:10;27.70;99.90
9323;DHT22;4700;48.822;9.270;2023-06-05T15:41:57;27.30;99.90
9323;DHT22;4700;48.822;9.270;2023-06-05T15:44:43;27.20;99.90
9323;DHT22;4700;48.822;9.270;2023-06-05T15:47:29;27.10;99.90
9323;DHT22;4700;48.822;9.270;2023-06-05T15:50:16;27.00;99.90
9323;DHT22;4700;48.822;9.270;2023-06-05T15:53:02;27.30;99.90
9323;DHT22;4700;48.822;9.270;2023-06-05T15:55:47;26.80;99.90
9323;DHT22;4700;48.822;9.270;2023-06-05T15:58:33;26.50;99.90
9323;DHT22;4700;48.822;9.270;2023-06-05T16:01:19;26.80;99.90
9323;DHT22;4700;48.822;9.270;2023-06-05T16:04:04;27.10;99.90
9323;DHT22;4700;48.822;9.270;2023-06-05T16:06:52;27.40;99.90
9323;DHT22;4700;48.822;9.270;2023-06-05T16:09:38;27.30;99.90
9323;DHT22;4700;48.822;9.270;2023-06-05T16:12:24;26.90;99.90
9323;DHT22;4700;48.822;9.270;2023-06-05T16:15:11;27.20;99.90
9323;DHT22;4700;48.822;9.270;2023-06-05T16:17:58;27.30;99.90
9323;DHT22;4700;48.822;9.270;2023-06-05T16:20:44;27.20;99.90
9323;DHT22;4700;48.822;9.270;2023-06-05T16:23:31;27.30;99.90
9323;DHT22;4700;48.822;9.270;2023-06-05T16:26:17;27.30;99.90
9323;DHT22;4700;48.822;9.270;2023-06-05T16:29:02;27.30;99.90
9323;DHT22;4700;48.822;9.270;2023-06-05T16:31:48;27.40;99.90
9323;DHT22;4700;48.822;9.270;2023-06-05T16:34:34;27.40;99.90
9323;DHT22;4700;48.822;9.270;2023-06-05T16:37:19;27.20;99.90
9323;DHT22;4700;48.822;9.270;2023-06-05T16:40:08;27.10;99.90
9323;DHT22;4700;48.822;9.270;2023-06-05T16:42:55;27.20;99.90
9323;DHT22;4700;48.822;9.270;2023-06-05T16:45:41;27.30;99.90
9323;DHT22;4700;48.822;9.270;2023-06-05T16:48:26;27.10;99.90
9323;DHT22;4700;48.822;9.270;2023-06-05T16:51:12;27.30;99.90
9323;DHT22;4700;48.822;9.270;2023-06-05T16:53:59;27.20;99.90
9323;DHT22;4700;48.822;9.270;2023-06-05T16:56:49;26.90;99.90
9323;DHT22;4700;48.822;9.270;2023-06-05T16:59:35;26.90;99.90
9323;DHT22;4700;48.822;9.270;2023-06-05T17:02:21;27.00;99.90
9323;DHT22;4700;48.822;9.270;2023-06-05T17:05:07;26.90;99.90
9323;DHT22;4700;48.822;9.270;2023-06-05T17:07:53;27.00;99.90
9323;DHT22;4700;48.822;9.270;2023-06-05T17:10:38;26.90;99.90
9323;DHT22;4700;48.822;9.270;2023-06-05T17:13:26;26.80;99.90
9323;DHT22;4700;48.822;9.270;2023-06-05T17:16:14;26.80;99.90
9323;DHT22;4700;48.822;9.270;2023-06-05T17:19:00;26.60;99.90
9323;DHT22;4700;48.822;9.270;2023-06-05T17:21:46;26.50;99.90
9323;DHT22;4700;48.822;9.270;2023-06-05T17:24:33;26.50;99.90
9323;DHT22;4700;48.822;9.270;2023-06-05T17:27:19;26.50;99.90
9323;DHT22;4700;48.822;9.270;2023-06-05T17:30:07;26.40;99.90
9323;DHT22;4700;48.822;9.270;2023-06-05T17:32:53;26.30;99.90
9323;DHT22;4700;48.822;9.270;2023-06-05T17:35:39;26.10;99.90
9323;DHT22;4700;48.822;9.270;2023-06-05T17:38:24;26.10;99.90
9323;DHT22;4700;48.822;9.270;2023-06-05T17:41:11;26.00;99.90
9323;DHT22;4700;48.822;9.270;2023-06-05T17:43:56;26.00;99.90
9323;DHT22;4700;48.822;9.270;2023-06-05T17:46:43;26.00;99.90
9323;DHT22;4700;48.822;9.270;2023-06-05T17:49:30;25.90;99.90
9323;DHT22;4700;48.822;9.270;2023-06-05T17:52:16;25.70;99.90
9323;DHT22;4700;48.822;9.270;2023-06-05T17:55:02;25.60;99.90
9323;DHT22;4700;48.822;9.270;2023-06-05T17:57:48;25.50;99.90
9323;DHT22;4700;48.822;9.270;2023-06-05T18:00:36;25.40;99.90
9323;DHT22;4700;48.822;9.270;2023-06-05T18:03:24;25.30;99.90
9323;DHT22;4700;48.822;9.270;2023-06-05T18:06:10;25.20;99.90
9323;DHT22;4700;48.822;9.270;2023-06-05T18:08:55;25.10;99.90
9323;DHT22;4700;48.822;9.270;2023-06-05T18:11:44;25.00;99.90
9323;DHT22;4700;48.822;9.270;2023-06-05T18:14:32;24.80;99.90
9323;DHT22;4700;48.822;9.270;2023-06-05T18:17:17;24.60;99.90
9323;DHT22;4700;48.822;9.270;2023-06-05T18:20:05;24.50;99.90
9323;DHT22;4700;48.822;9.270;2023-06-05T18:22:51;24.40;99.90
9323;DHT22;4700;48.822;9.270;2023-06-05T18:25:37;24.30;99.90
9323;DHT22;4700;48.822;9.270;2023-06-05T18:28:22;24.20;99.90
9323;DHT22;4700;48.822;9.270;2023-06-05T18:31:08;24.10;99.90
9323;DHT22;4700;48.822;9.270;2023-06-05T18:33:54;24.00;99.90
9323;DHT22;4700;48.822;9.270;2023-06-05T18:36:41;24.00;99.90
9323;DHT22;4700;48.822;9.270;2023-06-05T18:39:27;23.90;99.90
9323;DHT22;4700;48.822;9.270;2023-06-05T18:42:13;23.70;99.90
9323;DHT22;4700;48.822;9.270;2023-06-05T18:44:58;23.70;99.90
9323;DHT22;4700;48.822;9.270;2023-06-05T18:47:44;23.60;99.90
9323;DHT22;4700;48.822;9.270;2023-06-05T18:50:30;23.50;99.90
9323;DHT22;4700;48.822;9.270;2023-06-05T18:53:17;23.40;99.90